Terminal Aerodrome Forecast
Issued by NWS Shreveport, LA

Current Version | Previous Version | Text Only | Print | Product List | Glossary On
Versions: 1 2 3 4 5 6 7 8 9 10 11 12
000
FTUS44 KSHV 280000 RRA
TAFELD
TAF
KELD 280007Z 2800/2824 34008G16KT P6SM VCSH OVC007
      TEMPO 2800/2804 5SM -SHRA BR SCT008 OVC010
     FM280400 34012KT 3SM -RA BR BKN007 OVC014
     FM280900 34009KT P6SM OVC007
     FM281700 36006KT 4SM -RA OVC015=

USA.gov is the U.S. government's official web portal to all federal, state and local government web resources and services.